Accueil
METAR-TAF:

METAR-TAF

Aéroports :

Aéroport de Venise-Marco-Polo

Venise, Italie

latitude: 45-30N, longitude: 012-20E, altitude: 2 m

Observation

Le bulletin a été fait il y a 30 minutes, à 11:50 UTC
Vent 8 kt de sud-est
Température 27°C
Humidité 62%
Pression 1017 hPa
Visibilité 10 km ou plus
pas de nuages en-dessous de 1500 mètres et pas de cumulonimbus.

METAR: LIPZ 121150Z 14008KT CAVOK 27/19 Q1017 NOSIG

Heure: 14:20 (12:20 UTC)

Prévision

Le bulletin a été fait il y a 1 heure et 20 minutes, à 11:00 UTC
Prévision valable du 12 à 12 UTC au 13 à 18 UTC
Vent 10 kt de sud
Visibilité 10 km ou plus
pas de nuages en-dessous de 1500 mètres et pas de cumulonimbus.
Evoluant progressivement
du 12 à 18 UTC au 12 à 20 UTC
Vent 5 kt de direction variable
Evoluant progressivement
du 13 à 10 UTC au 13 à 12 UTC
Vent 10 kt de sud/sud-est

TAF: LIPZ 121100Z 1212/1318 17010KT CAVOK BECMG 1218/1220 VRB05KT BECMG 1310/1312 16010KT

Observations et prévisions météorologiques de plus de 4000 aéroports (messages METAR et TAF).

Les stations disponibles sont représentées par des disques jaunes et rouges sur la carte.

Passer la souris dessus pour voir le nom de la station.

Cliquer dessus pour voir les observations et prévisions météorologiques.

Pour changer de carte: cliquez sur les boutons verts avec une croix noire pour zoomer, sur le bouton vert avec un tiret pour effectuer un zoom arrière, ou sur les flèches vertes pour les cartes adjacentes.


METAR-TAF: